Weather at Bob Hope Airport

Public forecast

Using degrees Fahrenheit for public forecast. Weather courtesy of forecast.io.

Current aviation weather report (METAR) for Bob Hope Airport

Report is more than 6 hours old.

2022/11/14 14:53 (retrieved 2 years ago)

KBUR 141453Z 00000KT 10SM CLR 08/M01 A3011 RMK AO2 SLP190 T00781006 53008

Aviation forecast (TAF) for Bob Hope Airport

Forecast is more than 12 hours old.

2023/02/22 18:48 (retrieved 1 year ago)

TAF KBUR 221747Z 2218/2318 29008KT P6SM SKC FM230300 33012G20KT P6SM SCT050 SCT100 FM230700 33010KT P6SM VCSH SCT050 BKN090 FM230900 VRB03KT P6SM -SHRA BKN050 OVC090 FM231200 27006KT 6SM -RA BR BKN025 OVC040